Time,TemperatureF,DewpointF,PressureIn,WindDirection,WindDirectionDegrees,WindSpeedMPH,WindSpeedGustMPH,Humidity,HourlyPrecipIn,Conditions,Clouds,dailyrainin,SoftwareType,DateUTC
2013-09-05 00:01:00,61.0,55.1,0.00,ESE,120,0.0,0.0,81,0.00,,---,0.00,VWS V14.01,2013-09-05 04:01:00,
2013-09-05 00:03:00,60.8,54.9,0.00,ESE,120,0.0,0.0,81,0.00,,---,0.00,VWS V14.01,2013-09-05 04:03:00,
2013-09-05 00:08:00,60.8,54.9,0.00,ESE,120,0.0,0.0,81,0.00,,---,0.00,VWS V14.01,2013-09-05 04:08:00,
2013-09-05 00:13:00,60.6,54.8,0.00,ESE,120,0.0,0.0,81,0.00,,---,0.00,VWS V14.01,2013-09-05 04:13:00,
2013-09-05 00:18:00,60.4,54.6,0.00,ESE,120,0.0,0.0,81,0.00,,---,0.00,VWS V14.01,2013-09-05 04:18:00,
2013-09-05 00:23:00,60.6,54.8,0.00,ESE,120,0.0,0.0,81,0.00,,---,0.00,VWS V14.01,2013-09-05 04:23:00,
2013-09-05 00:28:00,60.6,55.1,0.00,ESE,120,0.0,0.0,82,0.00,,---,0.00,VWS V14.01,2013-09-05 04:28:00,
2013-09-05 00:33:00,60.6,55.1,0.00,East,89,0.0,0.0,82,0.00,,---,0.00,VWS V14.01,2013-09-05 04:33:00,
2013-09-05 00:38:00,60.6,55.1,0.00,East,89,0.0,0.0,82,0.00,,---,0.00,VWS V14.01,2013-09-05 04:38:00,
2013-09-05 00:43:00,60.4,54.9,0.00,East,89,0.0,0.0,82,0.00,,---,0.00,VWS V14.01,2013-09-05 04:43:00,
2013-09-05 00:48:00,60.4,54.6,0.00,East,89,0.0,0.0,81,0.00,,---,0.00,VWS V14.01,2013-09-05 04:48:00,
2013-09-05 00:53:00,60.4,54.9,0.00,East,90,0.0,0.0,82,0.00,,---,0.00,VWS V14.01,2013-09-05 04:53:00,
2013-09-05 00:58:00,60.4,54.9,0.00,East,89,0.0,0.0,82,0.00,,---,0.00,VWS V14.01,2013-09-05 04:58:00,
2013-09-05 01:03:00,60.3,54.8,0.00,East,89,0.0,0.0,82,0.00,,---,0.00,VWS V14.01,2013-09-05 05:03:00,
2013-09-05 01:08:00,60.3,54.8,0.00,East,89,0.0,0.0,82,0.00,,---,0.00,VWS V14.01,2013-09-05 05:08:00,
2013-09-05 01:13:00,60.1,54.6,0.00,East,89,0.0,0.0,82,0.00,,---,0.00,VWS V14.01,2013-09-05 05:13:00,
2013-09-05 01:18:00,60.1,54.6,0.00,East,89,0.0,0.0,82,0.00,,---,0.00,VWS V14.01,2013-09-05 05:18:00,
2013-09-05 01:23:00,60.1,54.6,0.00,East,89,0.0,0.0,82,0.00,,---,0.00,VWS V14.01,2013-09-05 05:23:00,
2013-09-05 01:28:00,59.9,54.1,0.00,East,90,0.0,0.0,81,0.00,,---,0.00,VWS V14.01,2013-09-05 05:28:00,
2013-09-05 01:33:00,59.7,53.9,0.00,East,89,0.0,0.0,81,0.00,,---,0.00,VWS V14.01,2013-09-05 05:33:00,
2013-09-05 01:38:00,59.7,54.2,0.00,East,89,0.0,0.0,82,0.00,,---,0.00,VWS V14.01,2013-09-05 05:38:00,
2013-09-05 01:43:00,59.5,53.7,0.00,East,90,0.0,0.0,81,0.00,,---,0.00,VWS V14.01,2013-09-05 05:43:00,
2013-09-05 01:48:00,59.4,53.5,0.00,East,89,0.0,0.0,81,0.00,,---,0.00,VWS V14.01,2013-09-05 05:48:00,
2013-09-05 01:53:00,59.4,53.5,0.00,East,89,0.0,0.0,81,0.00,,---,0.00,VWS V14.01,2013-09-05 05:53:00,
2013-09-05 01:58:00,59.4,53.9,0.00,East,89,0.0,0.0,82,0.00,,---,0.00,VWS V14.01,2013-09-05 05:58:00,
2013-09-05 02:03:00,59.2,53.4,0.00,East,89,0.0,0.0,81,0.00,,---,0.00,VWS V14.01,2013-09-05 06:03:00,
2013-09-05 02:08:00,59.2,53.4,0.00,East,89,0.0,0.0,81,0.00,,---,0.00,VWS V14.01,2013-09-05 06:08:00,
2013-09-05 02:13:00,59.2,53.4,0.00,East,89,0.0,0.0,81,0.00,,---,0.00,VWS V14.01,2013-09-05 06:13:00,
2013-09-05 02:18:00,59.4,53.9,0.00,East,89,0.0,0.0,82,0.00,,---,0.00,VWS V14.01,2013-09-05 06:18:00,
2013-09-05 02:23:00,59.4,53.9,0.00,East,89,0.0,0.0,82,0.00,,---,0.00,VWS V14.01,2013-09-05 06:23:00,
2013-09-05 02:28:00,59.4,53.9,0.00,East,90,0.0,0.0,82,0.00,,---,0.00,VWS V14.01,2013-09-05 06:28:00,
2013-09-05 02:33:00,59.4,53.9,0.00,East,89,0.0,0.0,82,0.00,,---,0.00,VWS V14.01,2013-09-05 06:33:00,
2013-09-05 02:38:00,59.4,53.9,0.00,East,89,0.0,0.0,82,0.00,,---,0.00,VWS V14.01,2013-09-05 06:38:00,
2013-09-05 02:43:00,59.4,53.9,0.00,East,89,0.0,0.0,82,0.00,,---,0.00,VWS V14.01,2013-09-05 06:43:00,
2013-09-05 02:48:00,59.4,53.9,0.00,East,89,0.0,0.0,82,0.00,,---,0.00,VWS V14.01,2013-09-05 06:48:00,
2013-09-05 02:53:00,59.4,53.9,0.00,East,89,0.0,0.0,82,0.00,,---,0.00,VWS V14.01,2013-09-05 06:53:00,
2013-09-05 02:58:00,59.4,53.9,0.00,East,89,0.0,0.0,82,0.00,,---,0.00,VWS V14.01,2013-09-05 06:58:00,
2013-09-05 03:03:00,59.4,53.9,0.00,East,90,0.0,0.0,82,0.00,,---,0.00,VWS V14.01,2013-09-05 07:03:00,
2013-09-05 03:07:00,59.2,53.7,0.00,East,90,0.0,0.0,82,0.00,,---,0.00,VWS V14.01,2013-09-05 07:07:00,
2013-09-05 03:12:00,59.2,53.7,0.00,East,89,0.0,0.0,82,0.00,,---,0.00,VWS V14.01,2013-09-05 07:12:00,
2013-09-05 03:17:00,59.2,53.7,0.00,East,89,0.0,0.0,82,0.00,,---,0.00,VWS V14.01,2013-09-05 07:17:00,
2013-09-05 03:22:00,59.2,53.7,0.00,East,89,0.0,0.0,82,0.00,,---,0.00,VWS V14.01,2013-09-05 07:22:00,
2013-09-05 03:27:00,59.0,53.2,0.00,NW,316,0.0,0.0,81,0.00,,---,0.00,VWS V14.01,2013-09-05 07:27:00,
2013-09-05 03:32:00,59.0,53.2,0.00,NW,316,0.0,0.0,81,0.00,,---,0.00,VWS V14.01,2013-09-05 07:32:00,
2013-09-05 03:37:00,58.5,52.7,0.00,NW,316,0.0,0.0,81,0.00,,---,0.00,VWS V14.01,2013-09-05 07:37:00,
2013-09-05 03:42:00,58.1,52.3,0.00,NW,316,0.0,0.0,81,0.00,,---,0.00,VWS V14.01,2013-09-05 07:42:00,
2013-09-05 03:47:00,57.9,52.1,0.00,NW,316,0.0,0.0,81,0.00,,---,0.00,VWS V14.01,2013-09-05 07:47:00,
2013-09-05 03:52:00,57.6,51.8,0.00,NW,316,0.0,0.0,81,0.00,,---,0.00,VWS V14.01,2013-09-05 07:52:00,
2013-09-05 03:57:00,57.2,51.4,0.00,NW,316,0.0,0.0,81,0.00,,---,0.00,VWS V14.01,2013-09-05 07:57:00,
2013-09-05 04:02:00,56.8,51.1,0.00,North,357,0.0,0.0,81,0.00,,---,0.00,VWS V14.01,2013-09-05 08:02:00,
2013-09-05 04:07:00,56.8,51.1,0.00,North,357,0.0,0.0,81,0.00,,---,0.00,VWS V14.01,2013-09-05 08:07:00,
2013-09-05 04:12:00,55.9,49.9,0.00,SW,232,0.0,0.0,80,0.00,,---,0.00,VWS V14.01,2013-09-05 08:12:00,
2013-09-05 04:17:00,55.8,49.7,0.00,West,280,0.0,0.0,80,0.00,,---,0.00,VWS V14.01,2013-09-05 08:17:00,
2013-09-05 04:22:00,55.6,49.5,0.00,West,280,0.0,0.0,80,0.00,,---,0.00,VWS V14.01,2013-09-05 08:22:00,
2013-09-05 04:27:00,55.2,49.2,0.00,West,280,0.0,0.0,80,0.00,,---,0.00,VWS V14.01,2013-09-05 08:27:00,
2013-09-05 04:32:00,55.0,49.0,0.00,West,280,0.0,0.0,80,0.00,,---,0.00,VWS V14.01,2013-09-05 08:32:00,
2013-09-05 04:37:00,54.9,48.5,0.00,West,280,0.0,0.0,79,0.00,,---,0.00,VWS V14.01,2013-09-05 08:37:00,
2013-09-05 04:42:00,54.7,48.3,0.00,West,280,0.0,0.0,79,0.00,,---,0.00,VWS V14.01,2013-09-05 08:42:00,
2013-09-05 04:47:00,54.7,48.3,0.00,West,280,0.0,0.0,79,0.00,,---,0.00,VWS V14.01,2013-09-05 08:47:00,
2013-09-05 04:52:00,54.7,48.3,0.00,West,280,0.0,0.0,79,0.00,,---,0.00,VWS V14.01,2013-09-05 08:52:00,
2013-09-05 04:57:00,54.5,48.1,0.00,West,280,0.0,0.0,79,0.00,,---,0.00,VWS V14.01,2013-09-05 08:57:00,
2013-09-05 05:02:00,54.5,48.1,0.00,West,280,0.0,0.0,79,0.00,,---,0.00,VWS V14.01,2013-09-05 09:02:00,
2013-09-05 05:07:00,54.5,48.1,0.00,West,280,0.0,0.0,79,0.00,,---,0.00,VWS V14.01,2013-09-05 09:07:00,
2013-09-05 05:12:00,54.5,48.1,0.00,West,280,0.0,0.0,79,0.00,,---,0.00,VWS V14.01,2013-09-05 09:12:00,
2013-09-05 05:17:00,54.5,48.1,0.00,West,280,0.0,0.0,79,0.00,,---,0.00,VWS V14.01,2013-09-05 09:17:00,
2013-09-05 05:22:00,54.1,47.4,0.00,West,280,0.0,0.0,78,0.00,,---,0.00,VWS V14.01,2013-09-05 09:22:00,
2013-09-05 05:27:00,54.0,47.3,0.00,South,171,0.0,0.0,78,0.00,,---,0.00,VWS V14.01,2013-09-05 09:27:00,
2013-09-05 05:32:00,54.0,47.3,0.00,South,171,0.0,0.0,78,0.00,,---,0.00,VWS V14.01,2013-09-05 09:32:00,
2013-09-05 05:37:00,54.1,47.4,0.00,South,171,0.0,0.0,78,0.00,,---,0.00,VWS V14.01,2013-09-05 09:37:00,
2013-09-05 05:42:00,54.1,47.4,0.00,South,171,0.0,0.0,78,0.00,,---,0.00,VWS V14.01,2013-09-05 09:42:00,
2013-09-05 05:47:00,54.1,47.4,0.00,South,170,0.0,0.0,78,0.00,,---,0.00,VWS V14.01,2013-09-05 09:47:00,
2013-09-05 05:52:00,53.8,46.8,0.00,South,170,0.0,0.0,77,0.00,,---,0.00,VWS V14.01,2013-09-05 09:52:00,
2013-09-05 05:57:00,53.8,46.8,0.00,South,170,0.0,0.0,77,0.00,,---,0.00,VWS V14.01,2013-09-05 09:57:00,
2013-09-05 06:02:00,53.8,46.8,0.00,South,170,0.0,0.0,77,0.00,,---,0.00,VWS V14.01,2013-09-05 10:02:00,
2013-09-05 06:07:00,53.6,46.6,0.00,South,171,0.0,0.0,77,0.00,,---,0.00,VWS V14.01,2013-09-05 10:07:00,
2013-09-05 06:12:00,53.6,46.6,0.00,South,170,0.0,0.0,77,0.00,,---,0.00,VWS V14.01,2013-09-05 10:12:00,
2013-09-05 06:17:00,53.6,46.6,0.00,South,170,0.0,0.0,77,0.00,,---,0.00,VWS V14.01,2013-09-05 10:17:00,
2013-09-05 06:22:00,53.6,46.6,0.00,South,170,0.0,0.0,77,0.00,,---,0.00,VWS V14.01,2013-09-05 10:22:00,
2013-09-05 06:27:00,53.6,46.6,0.00,South,170,0.0,0.0,77,0.00,,---,0.00,VWS V14.01,2013-09-05 10:27:00,
2013-09-05 06:32:00,53.6,46.6,0.00,South,170,0.0,0.0,77,0.00,,---,0.00,VWS V14.01,2013-09-05 10:32:00,
2013-09-05 06:37:00,53.4,46.4,0.00,South,170,0.0,0.0,77,0.00,,---,0.00,VWS V14.01,2013-09-05 10:37:00,
2013-09-05 06:42:00,53.4,46.4,0.00,South,170,0.0,0.0,77,0.00,,---,0.00,VWS V14.01,2013-09-05 10:42:00,
2013-09-05 06:47:00,53.4,46.4,0.00,South,170,0.0,0.0,77,0.00,,---,0.00,VWS V14.01,2013-09-05 10:47:00,
2013-09-05 06:52:00,53.4,46.4,0.00,South,170,0.0,0.0,77,0.00,,---,0.00,VWS V14.01,2013-09-05 10:52:00,
2013-09-05 06:57:00,53.2,46.2,0.00,South,170,0.0,0.0,77,0.00,,---,0.00,VWS V14.01,2013-09-05 10:57:00,
2013-09-05 07:02:00,53.2,46.2,0.00,South,170,0.0,0.0,77,0.00,,---,0.00,VWS V14.01,2013-09-05 11:02:00,
2013-09-05 07:07:00,53.2,46.2,0.00,South,170,0.0,0.0,77,0.00,,---,0.00,VWS V14.01,2013-09-05 11:07:00,
2013-09-05 07:12:00,53.2,46.2,0.00,South,170,0.0,0.0,77,0.00,,---,0.00,VWS V14.01,2013-09-05 11:12:00,
2013-09-05 07:17:00,53.1,46.0,0.00,South,170,0.0,0.0,77,0.00,,---,0.00,VWS V14.01,2013-09-05 11:17:00,
2013-09-05 07:22:00,53.2,46.2,0.00,South,170,0.0,0.0,77,0.00,,---,0.00,VWS V14.01,2013-09-05 11:22:00,
2013-09-05 07:27:00,53.2,46.2,0.00,South,170,0.0,0.0,77,0.00,,---,0.00,VWS V14.01,2013-09-05 11:27:00,
2013-09-05 07:32:00,53.2,46.2,0.00,South,170,0.0,0.0,77,0.00,,---,0.00,VWS V14.01,2013-09-05 11:32:00,
2013-09-05 07:37:00,53.1,46.0,0.00,South,170,0.0,0.0,77,0.00,,---,0.00,VWS V14.01,2013-09-05 11:37:00,
2013-09-05 07:42:00,53.1,45.7,0.00,South,170,0.0,0.0,76,0.00,,---,0.00,VWS V14.01,2013-09-05 11:42:00,
2013-09-05 07:47:00,52.7,45.4,0.00,South,170,0.0,0.0,76,0.00,,---,0.00,VWS V14.01,2013-09-05 11:47:00,
2013-09-05 07:52:00,52.9,45.9,0.00,South,170,0.0,0.0,77,0.00,,---,0.00,VWS V14.01,2013-09-05 11:52:00,
2013-09-05 07:57:00,52.9,45.9,0.00,South,170,0.0,0.0,77,0.00,,---,0.00,VWS V14.01,2013-09-05 11:57:00,
2013-09-05 08:02:00,52.9,45.9,0.00,South,170,0.0,0.0,77,0.00,,---,0.00,VWS V14.01,2013-09-05 12:02:00,
2013-09-05 08:07:00,53.1,46.0,0.00,South,170,0.0,0.0,77,0.00,,---,0.00,VWS V14.01,2013-09-05 12:07:00,
2013-09-05 08:12:00,53.1,46.0,0.00,WSW,241,0.0,0.0,77,0.00,,---,0.00,VWS V14.01,2013-09-05 12:12:00,
2013-09-05 08:17:00,52.9,45.9,0.00,WSW,239,0.0,0.0,77,0.00,,---,0.00,VWS V14.01,2013-09-05 12:17:00,
2013-09-05 08:22:00,53.1,46.0,0.00,WSW,239,0.0,0.0,77,0.00,,---,0.00,VWS V14.01,2013-09-05 12:22:00,
2013-09-05 08:27:00,53.1,46.0,0.00,WSW,239,0.0,0.0,77,0.00,,---,0.00,VWS V14.01,2013-09-05 12:27:00,
2013-09-05 08:32:00,53.1,45.7,0.00,ESE,122,0.0,0.0,76,0.00,,---,0.00,VWS V14.01,2013-09-05 12:32:00,
2013-09-05 08:37:00,53.1,46.0,0.00,SSW,199,0.0,0.0,77,0.00,,---,0.00,VWS V14.01,2013-09-05 12:37:00,
2013-09-05 08:42:00,53.4,46.4,0.00,SSW,199,0.0,0.0,77,0.00,,---,0.00,VWS V14.01,2013-09-05 12:42:00,
2013-09-05 08:47:00,53.6,46.2,0.00,South,177,0.0,0.0,76,0.00,,---,0.00,VWS V14.01,2013-09-05 12:47:00,
2013-09-05 08:52:00,53.8,46.4,0.00,WSW,251,0.0,0.0,76,0.00,,---,0.00,VWS V14.01,2013-09-05 12:52:00,
2013-09-05 08:57:00,53.8,46.4,0.00,SE,125,0.0,0.0,76,0.00,,---,0.00,VWS V14.01,2013-09-05 12:57:00,
2013-09-05 09:02:00,53.8,46.4,0.00,SE,128,0.0,0.0,76,0.00,,---,0.00,VWS V14.01,2013-09-05 13:02:00,
2013-09-05 09:07:00,53.8,46.0,0.00,SE,128,0.0,0.0,75,0.00,,---,0.00,VWS V14.01,2013-09-05 13:07:00,
2013-09-05 09:12:00,53.6,45.9,0.00,SE,133,0.0,0.0,75,0.00,,---,0.00,VWS V14.01,2013-09-05 13:12:00,
2013-09-05 09:17:00,53.6,45.9,0.00,SW,220,0.0,0.0,75,0.00,,---,0.00,VWS V14.01,2013-09-05 13:17:00,
2013-09-05 09:22:00,53.4,45.7,0.00,SE,135,0.0,0.0,75,0.00,,---,0.00,VWS V14.01,2013-09-05 13:22:00,
2013-09-05 09:27:00,53.2,45.2,0.00,SSW,199,0.0,0.0,74,0.00,,---,0.00,VWS V14.01,2013-09-05 13:27:00,
2013-09-05 09:32:00,53.2,45.2,0.00,ENE,65,0.0,0.0,74,0.00,,---,0.00,VWS V14.01,2013-09-05 13:32:00,
2013-09-05 09:37:00,53.6,45.5,0.00,WNW,297,0.0,0.0,74,0.00,,---,0.00,VWS V14.01,2013-09-05 13:37:00,
2013-09-05 09:42:00,53.6,45.2,0.00,WNW,295,0.0,0.0,73,0.00,,---,0.00,VWS V14.01,2013-09-05 13:42:00,
2013-09-05 09:47:00,53.6,44.8,0.00,NE,52,0.0,0.0,72,0.00,,---,0.00,VWS V14.01,2013-09-05 13:47:00,
2013-09-05 09:52:00,53.6,44.4,0.00,SW,221,0.0,0.0,71,0.00,,---,0.00,VWS V14.01,2013-09-05 13:52:00,
2013-09-05 09:57:00,53.4,43.5,0.00,SW,222,0.0,0.0,69,0.00,,---,0.00,VWS V14.01,2013-09-05 13:57:00,
2013-09-05 10:02:00,53.4,43.1,0.00,NW,305,0.0,0.0,68,0.00,,---,0.00,VWS V14.01,2013-09-05 14:02:00,
2013-09-05 10:07:00,53.2,43.0,0.00,North,10,0.0,0.0,68,0.00,,---,0.00,VWS V14.01,2013-09-05 14:07:00,
2013-09-05 10:12:00,53.4,42.4,0.00,ENE,63,0.0,0.0,66,0.00,,---,0.00,VWS V14.01,2013-09-05 14:12:00,
2013-09-05 10:17:00,53.8,41.5,0.00,WSW,252,2.2,2.2,63,0.00,,---,0.00,VWS V14.01,2013-09-05 14:17:00,
2013-09-05 10:22:00,54.1,41.8,0.00,NW,326,2.7,2.7,63,0.00,,---,0.00,VWS V14.01,2013-09-05 14:22:00,
2013-09-05 10:27:00,54.3,40.8,0.00,SE,143,0.0,0.0,60,0.00,,---,0.00,VWS V14.01,2013-09-05 14:27:00,
2013-09-05 10:32:00,54.3,40.3,0.00,WSW,245,0.0,4.0,59,0.00,,---,0.00,VWS V14.01,2013-09-05 14:32:00,
2013-09-05 10:37:00,54.3,40.3,0.00,West,270,0.0,0.0,59,0.00,,---,0.00,VWS V14.01,2013-09-05 14:37:00,
2013-09-05 10:42:00,54.5,39.1,0.00,SE,127,0.0,2.7,56,0.00,,---,0.00,VWS V14.01,2013-09-05 14:42:00,
2013-09-05 10:47:00,54.5,36.8,0.00,SSE,149,2.7,2.7,51,0.00,,---,0.00,VWS V14.01,2013-09-05 14:47:00,
2013-09-05 10:52:00,54.9,36.6,0.00,North,353,0.0,0.0,50,0.00,,---,0.00,VWS V14.01,2013-09-05 14:52:00,
2013-09-05 10:57:00,54.9,36.6,0.00,NNE,24,0.0,3.1,50,0.00,,---,0.00,VWS V14.01,2013-09-05 14:57:00,
2013-09-05 11:02:00,54.9,36.1,0.00,North,9,0.0,0.0,49,0.00,,---,0.00,VWS V14.01,2013-09-05 15:02:00,
2013-09-05 11:07:00,54.7,35.4,0.00,North,0,0.0,3.1,48,0.00,,---,0.00,VWS V14.01,2013-09-05 15:07:00,
2013-09-05 11:12:00,54.5,35.2,0.00,SE,124,3.6,3.6,48,0.00,,---,0.00,VWS V14.01,2013-09-05 15:12:00,
2013-09-05 11:17:00,54.5,35.2,0.00,SSE,159,0.0,0.0,48,0.00,,---,0.00,VWS V14.01,2013-09-05 15:17:00,
2013-09-05 11:22:00,54.9,35.0,0.00,SE,140,0.0,0.0,47,0.00,,---,0.00,VWS V14.01,2013-09-05 15:22:00,
2013-09-05 11:27:00,55.0,35.2,0.00,East,85,3.6,3.6,47,0.00,,---,0.00,VWS V14.01,2013-09-05 15:27:00,
2013-09-05 11:32:00,55.4,35.0,0.00,NNW,330,0.0,2.7,46,0.00,,---,0.00,VWS V14.01,2013-09-05 15:32:00,
2013-09-05 11:37:00,55.9,35.5,0.00,WNW,288,0.0,0.0,46,0.00,,---,0.00,VWS V14.01,2013-09-05 15:37:00,
2013-09-05 11:42:00,56.3,35.2,0.00,WSW,245,0.0,0.0,45,0.00,,---,0.00,VWS V14.01,2013-09-05 15:42:00,
2013-09-05 11:47:00,56.3,35.2,0.00,NNW,340,4.0,4.0,45,0.00,,---,0.00,VWS V14.01,2013-09-05 15:47:00,
2013-09-05 11:52:00,57.2,34.9,0.00,SW,226,0.0,0.0,43,0.00,,---,0.00,VWS V14.01,2013-09-05 15:52:00,
2013-09-05 11:57:00,57.6,35.2,0.00,ESE,108,3.6,3.6,43,0.00,,---,0.00,VWS V14.01,2013-09-05 15:57:00,
2013-09-05 12:02:00,57.2,33.7,0.00,NW,318,0.0,0.0,41,0.00,,---,0.00,VWS V14.01,2013-09-05 16:02:00,
2013-09-05 12:07:00,56.7,32.6,0.00,NW,317,0.0,0.0,40,0.00,,---,0.00,VWS V14.01,2013-09-05 16:07:00,
2013-09-05 12:12:00,56.5,33.1,0.00,SE,143,2.7,2.7,41,0.00,,---,0.00,VWS V14.01,2013-09-05 16:12:00,
2013-09-05 12:17:00,56.8,32.8,0.00,NW,319,0.0,0.0,40,0.00,,---,0.00,VWS V14.01,2013-09-05 16:17:00,
2013-09-05 12:22:00,57.2,33.1,0.00,SE,127,3.6,4.0,40,0.00,,---,0.00,VWS V14.01,2013-09-05 16:22:00,
2013-09-05 12:27:00,57.9,33.8,0.00,SW,219,0.0,0.0,40,0.00,,---,0.00,VWS V14.01,2013-09-05 16:27:00,
2013-09-05 12:32:00,58.5,33.6,0.00,South,181,2.7,7.6,39,0.00,,---,0.00,VWS V14.01,2013-09-05 16:32:00,
2013-09-05 12:37:00,59.0,32.1,0.00,West,272,2.7,2.7,36,0.00,,---,0.00,VWS V14.01,2013-09-05 16:37:00,
2013-09-05 12:42:00,58.5,32.3,0.00,WSW,242,0.0,0.0,37,0.00,,---,0.00,VWS V14.01,2013-09-05 16:42:00,
2013-09-05 12:47:00,58.3,32.2,0.00,West,268,3.1,3.1,37,0.00,,---,0.00,VWS V14.01,2013-09-05 16:47:00,
2013-09-05 12:52:00,58.5,32.3,0.00,ESE,111,2.7,2.7,37,0.00,,---,0.00,VWS V14.01,2013-09-05 16:52:00,
2013-09-05 12:57:00,59.4,33.1,0.00,SSW,213,2.2,3.6,37,0.00,,---,0.00,VWS V14.01,2013-09-05 16:57:00,
2013-09-05 13:02:00,59.9,32.9,0.00,SE,129,4.0,4.0,36,0.00,,---,0.00,VWS V14.01,2013-09-05 17:02:00,
2013-09-05 13:07:00,60.3,33.2,0.00,SE,136,3.6,3.6,36,0.00,,---,0.00,VWS V14.01,2013-09-05 17:07:00,
2013-09-05 13:12:00,60.1,32.4,0.00,North,10,0.0,2.7,35,0.00,,---,0.00,VWS V14.01,2013-09-05 17:12:00,
2013-09-05 13:17:00,59.7,32.0,0.00,SW,223,3.1,3.1,35,0.00,,---,0.00,VWS V14.01,2013-09-05 17:17:00,
2013-09-05 13:22:00,59.2,31.6,0.00,WNW,293,3.1,3.1,35,0.00,,---,0.00,VWS V14.01,2013-09-05 17:22:00,
2013-09-05 13:27:00,59.2,31.6,0.00,East,93,0.0,0.0,35,0.00,,---,0.00,VWS V14.01,2013-09-05 17:27:00,
2013-09-05 13:32:00,60.1,33.1,0.00,ENE,72,3.6,3.6,36,0.00,,---,0.00,VWS V14.01,2013-09-05 17:32:00,
2013-09-05 13:37:00,59.5,31.9,0.00,West,277,3.1,3.1,35,0.00,,---,0.00,VWS V14.01,2013-09-05 17:37:00,
2013-09-05 13:42:00,59.2,31.6,0.00,WNW,288,2.7,2.7,35,0.00,,---,0.00,VWS V14.01,2013-09-05 17:42:00,
2013-09-05 13:47:00,58.8,31.2,0.00,ESE,118,0.0,0.0,35,0.00,,---,0.00,VWS V14.01,2013-09-05 17:47:00,
2013-09-05 13:52:00,59.4,31.7,0.00,North,353,2.7,3.6,35,0.00,,---,0.00,VWS V14.01,2013-09-05 17:52:00,
2013-09-05 13:57:00,59.7,32.0,0.00,West,269,2.2,5.8,35,0.00,,---,0.00,VWS V14.01,2013-09-05 17:57:00,
2013-09-05 14:02:00,59.2,31.6,0.00,NNW,335,0.0,2.7,35,0.00,,---,0.00,VWS V14.01,2013-09-05 18:02:00,
2013-09-05 14:07:00,58.5,30.9,0.00,North,353,2.7,2.7,35,0.00,,---,0.00,VWS V14.01,2013-09-05 18:07:00,
2013-09-05 14:12:00,59.2,32.3,0.00,North,350,0.0,0.0,36,0.00,,---,0.00,VWS V14.01,2013-09-05 18:12:00,
2013-09-05 14:17:00,59.2,31.6,0.00,NW,322,4.0,4.0,35,0.00,,---,0.00,VWS V14.01,2013-09-05 18:17:00,
2013-09-05 14:22:00,59.5,32.6,0.00,North,0,0.0,0.0,36,0.00,,---,0.00,VWS V14.01,2013-09-05 18:22:00,
2013-09-05 14:27:00,59.4,32.4,0.00,West,268,2.7,2.7,36,0.00,,---,0.00,VWS V14.01,2013-09-05 18:27:00,
2013-09-05 14:32:00,59.0,32.1,0.00,WNW,287,0.0,0.0,36,0.00,,---,0.00,VWS V14.01,2013-09-05 18:32:00,
2013-09-05 14:36:00,59.0,32.8,0.00,ESE,104,3.1,3.1,37,0.00,,---,0.00,VWS V14.01,2013-09-05 18:36:00,
2013-09-05 14:41:00,58.8,33.3,0.00,WSW,249,0.0,0.0,38,0.00,,---,0.00,VWS V14.01,2013-09-05 18:41:00,
2013-09-05 14:46:00,58.6,33.1,0.00,North,353,0.0,0.0,38,0.00,,---,0.00,VWS V14.01,2013-09-05 18:46:00,
2013-09-05 14:51:00,59.2,33.6,0.00,West,279,3.1,3.1,38,0.00,,---,0.00,VWS V14.01,2013-09-05 18:51:00,
2013-09-05 14:56:00,59.2,33.0,0.00,NNW,336,0.0,0.0,37,0.00,,---,0.00,VWS V14.01,2013-09-05 18:56:00,
2013-09-05 15:01:00,59.2,33.0,0.00,West,264,0.0,0.0,37,0.00,,---,0.00,VWS V14.01,2013-09-05 19:01:00,
2013-09-05 15:06:00,59.4,33.1,0.00,ENE,76,2.7,2.7,37,0.00,,---,0.00,VWS V14.01,2013-09-05 19:06:00,
2013-09-05 15:11:00,59.7,32.7,0.00,NW,307,3.1,3.1,36,0.00,,---,0.00,VWS V14.01,2013-09-05 19:11:00,
2013-09-05 15:16:00,60.1,33.1,0.00,ESE,106,3.1,3.1,36,0.00,,---,0.00,VWS V14.01,2013-09-05 19:16:00,
2013-09-05 15:21:00,60.3,33.2,0.00,WSW,257,3.6,3.6,36,0.00,,---,0.00,VWS V14.01,2013-09-05 19:21:00,
2013-09-05 15:26:00,59.4,31.7,0.00,WSW,258,4.0,4.0,35,0.00,,---,0.00,VWS V14.01,2013-09-05 19:26:00,
2013-09-05 15:31:00,59.0,31.4,0.00,ESE,122,0.0,0.0,35,0.00,,---,0.00,VWS V14.01,2013-09-05 19:31:00,
2013-09-05 15:36:00,59.4,32.4,0.00,SSE,148,2.7,4.0,36,0.00,,---,0.00,VWS V14.01,2013-09-05 19:36:00,
2013-09-05 15:41:00,59.4,31.7,0.00,West,265,2.7,2.7,35,0.00,,---,0.00,VWS V14.01,2013-09-05 19:41:00,
2013-09-05 15:46:00,59.4,31.7,0.00,NNW,334,0.0,0.0,35,0.00,,---,0.00,VWS V14.01,2013-09-05 19:46:00,
2013-09-05 15:51:00,59.0,31.4,0.00,WSW,246,5.4,5.4,35,0.00,,---,0.00,VWS V14.01,2013-09-05 19:51:00,
2013-09-05 15:56:00,58.8,31.2,0.00,West,281,2.7,2.7,35,0.00,,---,0.00,VWS V14.01,2013-09-05 19:56:00,
2013-09-05 16:01:00,58.8,31.2,0.00,West,272,2.7,2.7,35,0.00,,---,0.00,VWS V14.01,2013-09-05 20:01:00,
2013-09-05 16:06:00,58.8,31.2,0.00,SE,143,4.9,4.9,35,0.00,,---,0.00,VWS V14.01,2013-09-05 20:06:00,
2013-09-05 16:11:00,58.5,30.9,0.00,East,96,2.7,2.7,35,0.00,,---,0.00,VWS V14.01,2013-09-05 20:11:00,
2013-09-05 16:16:00,58.5,30.9,0.00,ESE,122,0.0,0.0,35,0.00,,---,0.00,VWS V14.01,2013-09-05 20:16:00,
2013-09-05 16:21:00,58.5,30.9,0.00,NNW,339,3.1,3.1,35,0.00,,---,0.00,VWS V14.01,2013-09-05 20:21:00,
2013-09-05 16:26:00,58.6,31.1,0.00,NNW,340,2.7,3.6,35,0.00,,---,0.00,VWS V14.01,2013-09-05 20:26:00,
2013-09-05 16:31:00,58.8,31.2,0.00,West,275,0.0,3.6,35,0.00,,---,0.00,VWS V14.01,2013-09-05 20:31:00,
2013-09-05 16:36:00,58.8,31.2,0.00,NNW,345,0.0,0.0,35,0.00,,---,0.00,VWS V14.01,2013-09-05 20:36:00,
2013-09-05 16:41:00,58.8,31.2,0.00,NW,325,2.7,2.7,35,0.00,,---,0.00,VWS V14.01,2013-09-05 20:41:00,
2013-09-05 16:46:00,58.6,31.1,0.00,WSW,248,2.2,2.2,35,0.00,,---,0.00,VWS V14.01,2013-09-05 20:46:00,
2013-09-05 16:51:00,58.5,30.9,0.00,NNE,18,0.0,0.0,35,0.00,,---,0.00,VWS V14.01,2013-09-05 20:51:00,
2013-09-05 16:56:00,58.3,30.8,0.00,NE,34,3.1,3.1,35,0.00,,---,0.00,VWS V14.01,2013-09-05 20:56:00,
2013-09-05 17:01:00,58.3,30.8,0.00,NW,325,2.2,4.0,35,0.00,,---,0.00,VWS V14.01,2013-09-05 21:01:00,
2013-09-05 17:06:00,58.1,30.6,0.00,SE,131,3.1,5.4,35,0.00,,---,0.00,VWS V14.01,2013-09-05 21:06:00,
2013-09-05 17:11:00,57.6,30.1,0.00,West,272,0.0,0.0,35,0.00,,---,0.00,VWS V14.01,2013-09-05 21:11:00,
2013-09-05 17:16:00,57.2,29.8,0.00,ENE,70,0.0,2.7,35,0.00,,---,0.00,VWS V14.01,2013-09-05 21:16:00,
2013-09-05 17:21:00,57.2,29.8,0.00,WNW,297,0.0,0.0,35,0.00,,---,0.00,VWS V14.01,2013-09-05 21:21:00,
2013-09-05 17:26:00,57.0,29.7,0.00,WNW,288,2.7,2.7,35,0.00,,---,0.00,VWS V14.01,2013-09-05 21:26:00,
2013-09-05 17:31:00,57.0,29.7,0.00,SW,218,0.0,0.0,35,0.00,,---,0.00,VWS V14.01,2013-09-05 21:31:00,
2013-09-05 17:36:00,56.8,30.2,0.00,South,177,0.0,2.7,36,0.00,,---,0.00,VWS V14.01,2013-09-05 21:36:00,
2013-09-05 17:41:00,56.7,29.3,0.00,SE,135,0.0,0.0,35,0.00,,---,0.00,VWS V14.01,2013-09-05 21:41:00,
2013-09-05 17:46:00,56.7,29.3,0.00,NW,314,0.0,0.0,35,0.00,,---,0.00,VWS V14.01,2013-09-05 21:46:00,
2013-09-05 17:51:00,56.7,29.3,0.00,North,353,0.0,2.2,35,0.00,,---,0.00,VWS V14.01,2013-09-05 21:51:00,
2013-09-05 17:56:00,56.7,30.0,0.00,ESE,118,0.0,0.0,36,0.00,,---,0.00,VWS V14.01,2013-09-05 21:56:00,
2013-09-05 18:01:00,56.5,29.2,0.00,WSW,257,0.0,0.0,35,0.00,,---,0.00,VWS V14.01,2013-09-05 22:01:00,
2013-09-05 18:06:00,56.3,29.0,0.00,WSW,237,2.2,2.2,35,0.00,,---,0.00,VWS V14.01,2013-09-05 22:06:00,
2013-09-05 18:11:00,56.3,29.0,0.00,North,9,0.0,0.0,35,0.00,,---,0.00,VWS V14.01,2013-09-05 22:11:00,
2013-09-05 18:16:00,55.9,28.7,0.00,SSE,155,0.0,0.0,35,0.00,,---,0.00,VWS V14.01,2013-09-05 22:16:00,
2013-09-05 18:21:00,55.9,28.7,0.00,SSE,162,0.0,0.0,35,0.00,,---,0.00,VWS V14.01,2013-09-05 22:21:00,
2013-09-05 18:26:00,55.4,28.9,0.00,East,87,0.0,0.0,36,0.00,,---,0.00,VWS V14.01,2013-09-05 22:26:00,
2013-09-05 18:31:00,55.2,28.8,0.00,North,10,0.0,0.0,36,0.00,,---,0.00,VWS V14.01,2013-09-05 22:31:00,
2013-09-05 18:36:00,54.9,28.4,0.00,NNW,343,0.0,0.0,36,0.00,,---,0.00,VWS V14.01,2013-09-05 22:36:00,
2013-09-05 18:41:00,54.7,28.9,0.00,North,0,0.0,0.0,37,0.00,,---,0.00,VWS V14.01,2013-09-05 22:41:00,
2013-09-05 18:46:00,54.3,28.6,0.00,WSW,250,0.0,0.0,37,0.00,,---,0.00,VWS V14.01,2013-09-05 22:46:00,
2013-09-05 18:51:00,54.1,29.1,0.00,NW,319,0.0,0.0,38,0.00,,---,0.00,VWS V14.01,2013-09-05 22:51:00,
2013-09-05 18:56:00,54.0,29.0,0.00,ESE,103,3.1,3.1,38,0.00,,---,0.00,VWS V14.01,2013-09-05 22:56:00,
2013-09-05 19:01:00,53.6,28.6,0.00,ESE,107,0.0,0.0,38,0.00,,---,0.00,VWS V14.01,2013-09-05 23:01:00,
2013-09-05 19:06:00,53.2,28.9,0.00,ESE,107,0.0,0.0,39,0.00,,---,0.00,VWS V14.01,2013-09-05 23:06:00,
2013-09-05 19:11:00,52.9,29.2,0.00,ESE,107,0.0,0.0,40,0.00,,---,0.00,VWS V14.01,2013-09-05 23:11:00,
2013-09-05 19:16:00,52.3,29.4,0.00,ESE,107,0.0,0.0,41,0.00,,---,0.00,VWS V14.01,2013-09-05 23:16:00,
2013-09-05 19:21:00,52.0,29.6,0.00,ESE,107,0.0,0.0,42,0.00,,---,0.00,VWS V14.01,2013-09-05 23:21:00,
2013-09-05 19:26:00,51.6,29.9,0.00,ESE,107,0.0,0.0,43,0.00,,---,0.00,VWS V14.01,2013-09-05 23:26:00,
2013-09-05 19:31:00,51.3,30.1,0.00,ESE,107,0.0,0.0,44,0.00,,---,0.00,VWS V14.01,2013-09-05 23:31:00,
2013-09-05 19:36:00,50.9,30.3,0.00,ESE,107,0.0,0.0,45,0.00,,---,0.00,VWS V14.01,2013-09-05 23:36:00,
2013-09-05 19:41:00,50.5,30.5,0.00,ESE,107,0.0,0.0,46,0.00,,---,0.00,VWS V14.01,2013-09-05 23:41:00,
2013-09-05 19:46:00,50.4,30.9,0.00,ESE,107,0.0,0.0,47,0.00,,---,0.00,VWS V14.01,2013-09-05 23:46:00,
2013-09-05 19:51:00,50.2,30.8,0.00,ESE,107,0.0,0.0,47,0.00,,---,0.00,VWS V14.01,2013-09-05 23:51:00,
2013-09-05 19:56:00,49.8,30.9,0.00,ESE,107,0.0,0.0,48,0.00,,---,0.00,VWS V14.01,2013-09-05 23:56:00,
2013-09-05 20:01:00,49.6,30.8,0.00,ESE,107,0.0,0.0,48,0.00,,---,0.00,VWS V14.01,2013-09-06 00:01:00,
2013-09-05 20:06:00,49.5,31.1,0.00,ESE,107,0.0,0.0,49,0.00,,---,0.00,VWS V14.01,2013-09-06 00:06:00,
2013-09-05 20:11:00,49.1,30.8,0.00,ESE,107,0.0,0.0,49,0.00,,---,0.00,VWS V14.01,2013-09-06 00:11:00,
2013-09-05 20:16:00,48.9,31.1,0.00,ESE,107,0.0,0.0,50,0.00,,---,0.00,VWS V14.01,2013-09-06 00:16:00,
2013-09-05 20:21:00,48.7,31.0,0.00,ESE,107,0.0,0.0,50,0.00,,---,0.00,VWS V14.01,2013-09-06 00:21:00,
2013-09-05 20:26:00,48.4,30.6,0.00,ESE,107,0.0,0.0,50,0.00,,---,0.00,VWS V14.01,2013-09-06 00:26:00,
2013-09-05 20:31:00,48.2,30.9,0.00,ESE,107,0.0,0.0,51,0.00,,---,0.00,VWS V14.01,2013-09-06 00:31:00,
2013-09-05 20:36:00,48.0,31.2,0.00,ESE,107,0.0,0.0,52,0.00,,---,0.00,VWS V14.01,2013-09-06 00:36:00,
2013-09-05 20:41:00,48.0,31.2,0.00,ESE,107,0.0,0.0,52,0.00,,---,0.00,VWS V14.01,2013-09-06 00:41:00,
2013-09-05 20:46:00,47.7,30.9,0.00,ESE,107,0.0,0.0,52,0.00,,---,0.00,VWS V14.01,2013-09-06 00:46:00,
2013-09-05 20:51:00,47.7,31.4,0.00,ESE,107,0.0,0.0,53,0.00,,---,0.00,VWS V14.01,2013-09-06 00:51:00,
2013-09-05 20:56:00,47.5,31.2,0.00,ESE,107,0.0,0.0,53,0.00,,---,0.00,VWS V14.01,2013-09-06 00:56:00,
2013-09-05 21:01:00,47.5,31.7,0.00,ESE,107,0.0,0.0,54,0.00,,---,0.00,VWS V14.01,2013-09-06 01:01:00,
2013-09-05 21:06:00,47.5,31.7,0.00,ESE,107,0.0,0.0,54,0.00,,---,0.00,VWS V14.01,2013-09-06 01:06:00,
2013-09-05 21:11:00,47.5,31.7,0.00,ESE,107,0.0,0.0,54,0.00,,---,0.00,VWS V14.01,2013-09-06 01:11:00,
2013-09-05 21:16:00,47.5,32.1,0.00,ESE,107,0.0,0.0,55,0.00,,---,0.00,VWS V14.01,2013-09-06 01:16:00,
2013-09-05 21:21:00,47.3,32.0,0.00,ESE,107,0.0,0.0,55,0.00,,---,0.00,VWS V14.01,2013-09-06 01:21:00,
2013-09-05 21:26:00,47.3,32.0,0.00,ESE,107,0.0,0.0,55,0.00,,---,0.00,VWS V14.01,2013-09-06 01:26:00,
2013-09-05 21:31:00,47.1,31.8,0.00,ESE,107,0.0,0.0,55,0.00,,---,0.00,VWS V14.01,2013-09-06 01:31:00,
2013-09-05 21:36:00,47.1,32.2,0.00,ESE,107,0.0,0.0,56,0.00,,---,0.00,VWS V14.01,2013-09-06 01:36:00,
2013-09-05 21:41:00,46.9,32.1,0.00,ESE,107,0.0,0.0,56,0.00,,---,0.00,VWS V14.01,2013-09-06 01:41:00,
2013-09-05 21:46:00,47.1,32.2,0.00,ESE,107,0.0,0.0,56,0.00,,---,0.00,VWS V14.01,2013-09-06 01:46:00,
2013-09-05 21:51:00,47.1,32.7,0.00,ESE,107,0.0,0.0,57,0.00,,---,0.00,VWS V14.01,2013-09-06 01:51:00,
2013-09-05 21:56:00,46.9,32.5,0.00,ESE,107,0.0,0.0,57,0.00,,---,0.00,VWS V14.01,2013-09-06 01:56:00,
2013-09-05 22:01:00,46.8,32.3,0.00,ESE,107,0.0,0.0,57,0.00,,---,0.00,VWS V14.01,2013-09-06 02:01:00,
2013-09-05 22:06:00,46.4,31.6,0.00,ESE,107,0.0,0.0,56,0.00,,---,0.00,VWS V14.01,2013-09-06 02:06:00,
2013-09-05 22:11:00,46.2,31.8,0.00,ESE,107,0.0,0.0,57,0.00,,---,0.00,VWS V14.01,2013-09-06 02:11:00,
2013-09-05 22:16:00,46.2,32.3,0.00,ESE,107,0.0,0.0,58,0.00,,---,0.00,VWS V14.01,2013-09-06 02:16:00,
2013-09-05 22:21:00,46.2,32.3,0.00,ESE,107,0.0,0.0,58,0.00,,---,0.00,VWS V14.01,2013-09-06 02:21:00,
2013-09-05 22:26:00,46.0,32.1,0.00,ESE,107,0.0,0.0,58,0.00,,---,0.00,VWS V14.01,2013-09-06 02:26:00,
2013-09-05 22:31:00,45.9,32.4,0.00,ESE,107,0.0,0.0,59,0.00,,---,0.00,VWS V14.01,2013-09-06 02:31:00,
2013-09-05 22:36:00,45.7,32.2,0.00,ESE,107,0.0,0.0,59,0.00,,---,0.00,VWS V14.01,2013-09-06 02:36:00,
2013-09-05 22:41:00,45.5,32.0,0.00,ESE,107,0.0,0.0,59,0.00,,---,0.00,VWS V14.01,2013-09-06 02:41:00,
2013-09-05 22:46:00,45.3,31.9,0.00,ESE,107,0.0,0.0,59,0.00,,---,0.00,VWS V14.01,2013-09-06 02:46:00,
2013-09-05 22:51:00,45.3,31.9,0.00,ESE,107,0.0,0.0,59,0.00,,---,0.00,VWS V14.01,2013-09-06 02:51:00,
2013-09-05 22:56:00,45.1,31.7,0.00,ESE,107,0.0,0.0,59,0.00,,---,0.00,VWS V14.01,2013-09-06 02:56:00,
2013-09-05 23:01:00,45.1,32.1,0.00,ESE,107,0.0,0.0,60,0.00,,---,0.00,VWS V14.01,2013-09-06 03:01:00,
2013-09-05 23:06:00,45.0,31.9,0.00,ESE,107,0.0,0.0,60,0.00,,---,0.00,VWS V14.01,2013-09-06 03:06:00,
2013-09-05 23:11:00,44.8,31.8,0.00,ESE,107,0.0,0.0,60,0.00,,---,0.00,VWS V14.01,2013-09-06 03:11:00,
2013-09-05 23:16:00,44.8,31.8,0.00,ESE,107,0.0,0.0,60,0.00,,---,0.00,VWS V14.01,2013-09-06 03:16:00,
2013-09-05 23:21:00,44.6,31.6,0.00,ESE,107,0.0,0.0,60,0.00,,---,0.00,VWS V14.01,2013-09-06 03:21:00,
2013-09-05 23:26:00,44.6,31.6,0.00,ESE,107,0.0,0.0,60,0.00,,---,0.00,VWS V14.01,2013-09-06 03:26:00,
2013-09-05 23:31:00,44.2,31.7,0.00,ESE,107,0.0,0.0,61,0.00,,---,0.00,VWS V14.01,2013-09-06 03:31:00,
2013-09-05 23:36:00,44.2,31.7,0.00,ESE,107,0.0,0.0,61,0.00,,---,0.00,VWS V14.01,2013-09-06 03:36:00,
2013-09-05 23:41:00,44.2,31.7,0.00,ESE,107,0.0,0.0,61,0.00,,---,0.00,VWS V14.01,2013-09-06 03:41:00,
2013-09-05 23:46:00,44.1,31.5,0.00,ESE,107,0.0,0.0,61,0.00,,---,0.00,VWS V14.01,2013-09-06 03:46:00,
2013-09-05 23:51:00,43.9,31.3,0.00,ESE,107,0.0,0.0,61,0.00,,---,0.00,VWS V14.01,2013-09-06 03:51:00,
2013-09-05 23:56:00,43.7,31.1,0.00,ESE,107,0.0,0.0,61,0.00,,---,0.00,VWS V14.01,2013-09-06 03:56:00,